sensor_id;sensor_type;location;lat;lon;timestamp;P1;durP1;ratioP1;P2;durP2;ratioP2
27019;SDS011;76819;49.098;11.826;2024-03-23T00:55:02;68.78;;;41.88;;
27019;SDS011;76819;49.098;11.826;2024-03-23T01:00:05;61.67;;;38.75;;
27019;SDS011;76819;49.098;11.826;2024-03-23T01:05:07;63.75;;;39.38;;
27019;SDS011;76819;49.098;11.826;2024-03-23T01:10:10;62.60;;;41.00;;
27019;SDS011;76819;49.098;11.826;2024-03-23T01:15:12;63.63;;;39.55;;
27019;SDS011;76819;49.098;11.826;2024-03-23T01:20:14;67.53;;;41.72;;
27019;SDS011;76819;49.098;11.826;2024-03-23T01:25:18;61.63;;;38.40;;
27019;SDS011;76819;49.098;11.826;2024-03-23T01:30:19;64.40;;;38.45;;
27019;SDS011;76819;49.098;11.826;2024-03-23T01:35:21;59.45;;;36.97;;
27019;SDS011;76819;49.098;11.826;2024-03-23T01:40:24;46.08;;;29.55;;
27019;SDS011;76819;49.098;11.826;2024-03-23T01:45:27;42.42;;;27.38;;
27019;SDS011;76819;49.098;11.826;2024-03-23T01:50:29;30.90;;;21.45;;
27019;SDS011;76819;49.098;11.826;2024-03-23T01:55:35;33.83;;;21.60;;
27019;SDS011;76819;49.098;11.826;2024-03-23T02:00:36;32.88;;;21.90;;
27019;SDS011;76819;49.098;11.826;2024-03-23T02:05:38;26.58;;;20.02;;
27019;SDS011;76819;49.098;11.826;2024-03-23T02:10:42;42.80;;;27.98;;
27019;SDS011;76819;49.098;11.826;2024-03-23T02:15:44;28.38;;;20.77;;
27019;SDS011;76819;49.098;11.826;2024-03-23T02:20:46;27.27;;;19.23;;
27019;SDS011;76819;49.098;11.826;2024-03-23T02:25:49;28.35;;;20.38;;
27019;SDS011;76819;49.098;11.826;2024-03-23T02:30:50;26.85;;;20.17;;
27019;SDS011;76819;49.098;11.826;2024-03-23T02:35:55;27.73;;;21.30;;
27019;SDS011;76819;49.098;11.826;2024-03-23T02:41:02;24.52;;;17.63;;
27019;SDS011;76819;49.098;11.826;2024-03-23T02:46:04;35.97;;;21.13;;
27019;SDS011;76819;49.098;11.826;2024-03-23T02:51:06;28.58;;;19.25;;
27019;SDS011;76819;49.098;11.826;2024-03-23T02:56:09;26.00;;;17.48;;
27019;SDS011;76819;49.098;11.826;2024-03-23T03:01:16;25.75;;;17.08;;
27019;SDS011;76819;49.098;11.826;2024-03-23T03:06:22;35.35;;;18.40;;
27019;SDS011;76819;49.098;11.826;2024-03-23T03:11:26;25.38;;;16.52;;
27019;SDS011;76819;49.098;11.826;2024-03-23T03:16:27;22.77;;;16.75;;
27019;SDS011;76819;49.098;11.826;2024-03-23T03:21:29;23.75;;;16.65;;
27019;SDS011;76819;49.098;11.826;2024-03-23T03:26:32;24.35;;;16.40;;
27019;SDS011;76819;49.098;11.826;2024-03-23T03:31:34;21.60;;;15.20;;
27019;SDS011;76819;49.098;11.826;2024-03-23T03:36:36;19.70;;;13.80;;
27019;SDS011;76819;49.098;11.826;2024-03-23T03:41:39;19.13;;;13.27;;
27019;SDS011;76819;49.098;11.826;2024-03-23T03:46:40;23.40;;;13.77;;
27019;SDS011;76819;49.098;11.826;2024-03-23T03:51:42;22.85;;;13.02;;
27019;SDS011;76819;49.098;11.826;2024-03-23T03:56:45;20.20;;;13.35;;
27019;SDS011;76819;49.098;11.826;2024-03-23T04:01:47;20.90;;;13.20;;
27019;SDS011;76819;49.098;11.826;2024-03-23T04:06:48;24.20;;;12.00;;
27019;SDS011;76819;49.098;11.826;2024-03-23T04:11:51;17.38;;;12.07;;
27019;SDS011;76819;49.098;11.826;2024-03-23T04:16:53;17.35;;;10.75;;
27019;SDS011;76819;49.098;11.826;2024-03-23T04:21:55;15.93;;;9.75;;
27019;SDS011;76819;49.098;11.826;2024-03-23T04:26:58;17.10;;;10.43;;
27019;SDS011;76819;49.098;11.826;2024-03-23T04:32:00;12.20;;;8.60;;
27019;SDS011;76819;49.098;11.826;2024-03-23T04:37:02;13.07;;;9.07;;
27019;SDS011;76819;49.098;11.826;2024-03-23T04:42:06;11.10;;;7.70;;
27019;SDS011;76819;49.098;11.826;2024-03-23T04:47:08;11.75;;;8.80;;
27019;SDS011;76819;49.098;11.826;2024-03-23T04:52:10;9.40;;;7.20;;
27019;SDS011;76819;49.098;11.826;2024-03-23T04:57:13;10.50;;;6.10;;
27019;SDS011;76819;49.098;11.826;2024-03-23T05:02:17;12.95;;;6.47;;
27019;SDS011;76819;49.098;11.826;2024-03-23T05:07:18;12.40;;;6.10;;
27019;SDS011;76819;49.098;11.826;2024-03-23T05:12:21;9.93;;;6.53;;
27019;SDS011;76819;49.098;11.826;2024-03-23T05:17:23;9.15;;;6.28;;
27019;SDS011;76819;49.098;11.826;2024-03-23T05:22:25;16.23;;;6.78;;
27019;SDS011;76819;49.098;11.826;2024-03-23T05:27:28;12.63;;;6.57;;
27019;SDS011;76819;49.098;11.826;2024-03-23T05:32:30;10.35;;;5.65;;
27019;SDS011;76819;49.098;11.826;2024-03-23T05:37:32;10.63;;;6.30;;
27019;SDS011;76819;49.098;11.826;2024-03-23T05:42:35;12.43;;;5.57;;
27019;SDS011;76819;49.098;11.826;2024-03-23T05:47:37;7.78;;;4.95;;
27019;SDS011;76819;49.098;11.826;2024-03-23T05:52:39;9.55;;;5.53;;
27019;SDS011;76819;49.098;11.826;2024-03-23T05:57:44;8.43;;;5.40;;
27019;SDS011;76819;49.098;11.826;2024-03-23T06:02:45;10.27;;;5.50;;
27019;SDS011;76819;49.098;11.826;2024-03-23T06:07:47;7.50;;;5.05;;
27019;SDS011;76819;49.098;11.826;2024-03-23T06:12:51;8.18;;;5.03;;
27019;SDS011;76819;49.098;11.826;2024-03-23T06:17:53;8.38;;;5.00;;
27019;SDS011;76819;49.098;11.826;2024-03-23T06:22:55;8.52;;;5.15;;
27019;SDS011;76819;49.098;11.826;2024-03-23T06:27:58;6.22;;;4.78;;
27019;SDS011;76819;49.098;11.826;2024-03-23T06:33:01;8.60;;;4.93;;
27019;SDS011;76819;49.098;11.826;2024-03-23T06:38:03;8.73;;;4.82;;
27019;SDS011;76819;49.098;11.826;2024-03-23T06:43:06;9.85;;;5.10;;
27019;SDS011;76819;49.098;11.826;2024-03-23T06:48:09;8.05;;;4.40;;
27019;SDS011;76819;49.098;11.826;2024-03-23T06:53:10;8.20;;;4.93;;
27019;SDS011;76819;49.098;11.826;2024-03-23T06:58:13;8.60;;;4.43;;
27019;SDS011;76819;49.098;11.826;2024-03-23T07:03:16;6.63;;;4.35;;
27019;SDS011;76819;49.098;11.826;2024-03-23T07:08:18;9.55;;;4.53;;
27019;SDS011;76819;49.098;11.826;2024-03-23T07:13:23;5.78;;;4.72;;
27019;SDS011;76819;49.098;11.826;2024-03-23T07:18:25;7.40;;;4.55;;
27019;SDS011;76819;49.098;11.826;2024-03-23T07:23:27;6.70;;;4.65;;
27019;SDS011;76819;49.098;11.826;2024-03-23T07:28:30;11.40;;;5.72;;
27019;SDS011;76819;49.098;11.826;2024-03-23T07:33:34;9.82;;;6.43;;
27019;SDS011;76819;49.098;11.826;2024-03-23T07:38:37;10.88;;;7.13;;
27019;SDS011;76819;49.098;11.826;2024-03-23T07:43:43;9.40;;;6.60;;
27019;SDS011;76819;49.098;11.826;2024-03-23T07:48:45;12.95;;;7.40;;
27019;SDS011;76819;49.098;11.826;2024-03-23T07:53:47;11.27;;;6.80;;
27019;SDS011;76819;49.098;11.826;2024-03-23T07:58:50;11.95;;;6.40;;
27019;SDS011;76819;49.098;11.826;2024-03-23T08:03:52;10.05;;;6.63;;
27019;SDS011;76819;49.098;11.826;2024-03-23T08:08:54;9.90;;;6.90;;
27019;SDS011;76819;49.098;11.826;2024-03-23T08:14:02;11.50;;;7.28;;
27019;SDS011;76819;49.098;11.826;2024-03-23T08:19:04;17.52;;;9.20;;
27019;SDS011;76819;49.098;11.826;2024-03-23T08:24:08;13.52;;;7.88;;
27019;SDS011;76819;49.098;11.826;2024-03-23T08:29:12;12.65;;;8.25;;
27019;SDS011;76819;49.098;11.826;2024-03-23T08:34:13;10.93;;;8.75;;
27019;SDS011;76819;49.098;11.826;2024-03-23T08:39:15;13.50;;;8.70;;
27019;SDS011;76819;49.098;11.826;2024-03-23T08:44:19;13.13;;;8.80;;
27019;SDS011;76819;49.098;11.826;2024-03-23T08:49:20;13.45;;;8.80;;
27019;SDS011;76819;49.098;11.826;2024-03-23T08:54:22;12.60;;;7.63;;
27019;SDS011;76819;49.098;11.826;2024-03-23T08:59:25;11.93;;;7.43;;
27019;SDS011;76819;49.098;11.826;2024-03-23T09:04:27;10.45;;;7.20;;
27019;SDS011;76819;49.098;11.826;2024-03-23T09:09:29;11.50;;;6.70;;
27019;SDS011;76819;49.098;11.826;2024-03-23T09:14:32;11.07;;;6.53;;
27019;SDS011;76819;49.098;11.826;2024-03-23T09:19:34;8.35;;;5.40;;
27019;SDS011;76819;49.098;11.826;2024-03-23T09:24:35;8.60;;;5.45;;
27019;SDS011;76819;49.098;11.826;2024-03-23T09:29:38;10.00;;;5.22;;
27019;SDS011;76819;49.098;11.826;2024-03-23T09:34:40;7.57;;;4.97;;
27019;SDS011;76819;49.098;11.826;2024-03-23T09:39:42;4.93;;;4.13;;
27019;SDS011;76819;49.098;11.826;2024-03-23T09:44:45;6.90;;;4.63;;
27019;SDS011;76819;49.098;11.826;2024-03-23T09:49:47;5.07;;;4.32;;
27019;SDS011;76819;49.098;11.826;2024-03-23T09:54:49;7.72;;;5.47;;
27019;SDS011;76819;49.098;11.826;2024-03-23T09:59:52;5.00;;;3.35;;
27019;SDS011;76819;49.098;11.826;2024-03-23T10:04:55;3.30;;;3.00;;
27019;SDS011;76819;49.098;11.826;2024-03-23T10:09:57;2.40;;;2.20;;
27019;SDS011;76819;49.098;11.826;2024-03-23T10:15:00;2.10;;;1.90;;
27019;SDS011;76819;49.098;11.826;2024-03-23T10:20:02;2.35;;;2.05;;
27019;SDS011;76819;49.098;11.826;2024-03-23T10:25:07;2.63;;;1.98;;
27019;SDS011;76819;49.098;11.826;2024-03-23T10:30:12;2.22;;;2.03;;
27019;SDS011;76819;49.098;11.826;2024-03-23T10:35:15;4.80;;;2.53;;
27019;SDS011;76819;49.098;11.826;2024-03-23T10:40:19;2.60;;;2.40;;
27019;SDS011;76819;49.098;11.826;2024-03-23T10:45:22;5.55;;;2.33;;
27019;SDS011;76819;49.098;11.826;2024-03-23T10:50:24;1.85;;;1.75;;
27019;SDS011;76819;49.098;11.826;2024-03-23T10:55:25;1.92;;;1.83;;
27019;SDS011;76819;49.098;11.826;2024-03-23T11:00:30;2.38;;;1.70;;
27019;SDS011;76819;49.098;11.826;2024-03-23T11:05:31;1.60;;;1.50;;
27019;SDS011;76819;49.098;11.826;2024-03-23T11:10:33;1.92;;;1.83;;
27019;SDS011;76819;49.098;11.826;2024-03-23T11:15:37;1.73;;;1.63;;
27019;SDS011;76819;49.098;11.826;2024-03-23T11:20:39;2.08;;;1.70;;
27019;SDS011;76819;49.098;11.826;2024-03-23T11:25:41;3.22;;;1.73;;
27019;SDS011;76819;49.098;11.826;2024-03-23T11:30:44;1.98;;;1.50;;
27019;SDS011;76819;49.098;11.826;2024-03-23T11:35:46;2.38;;;1.90;;
27019;SDS011;76819;49.098;11.826;2024-03-23T11:40:48;2.83;;;1.90;;
27019;SDS011;76819;49.098;11.826;2024-03-23T11:45:52;2.78;;;1.67;;
27019;SDS011;76819;49.098;11.826;2024-03-23T11:50:56;5.05;;;2.10;;
27019;SDS011;76819;49.098;11.826;2024-03-23T11:55:59;5.68;;;2.25;;
27019;SDS011;76819;49.098;11.826;2024-03-23T12:01:02;3.58;;;1.98;;
27019;SDS011;76819;49.098;11.826;2024-03-23T12:06:05;2.50;;;2.00;;
27019;SDS011;76819;49.098;11.826;2024-03-23T12:11:08;3.20;;;2.13;;
27019;SDS011;76819;49.098;11.826;2024-03-23T12:16:13;5.53;;;2.40;;
27019;SDS011;76819;49.098;11.826;2024-03-23T12:21:15;4.60;;;2.63;;
27019;SDS011;76819;49.098;11.826;2024-03-23T12:26:18;4.03;;;2.60;;
27019;SDS011;76819;49.098;11.826;2024-03-23T12:31:21;5.82;;;2.60;;
27019;SDS011;76819;49.098;11.826;2024-03-23T12:36:22;8.75;;;3.50;;
27019;SDS011;76819;49.098;11.826;2024-03-23T12:41:24;5.57;;;2.97;;
27019;SDS011;76819;49.098;11.826;2024-03-23T12:46:27;5.93;;;2.78;;
27019;SDS011;76819;49.098;11.826;2024-03-23T12:51:29;4.65;;;2.75;;
27019;SDS011;76819;49.098;11.826;2024-03-23T12:56:31;7.45;;;2.90;;
27019;SDS011;76819;49.098;11.826;2024-03-23T13:01:34;4.22;;;2.70;;
27019;SDS011;76819;49.098;11.826;2024-03-23T13:06:36;6.90;;;2.83;;
27019;SDS011;76819;49.098;11.826;2024-03-23T13:11:37;7.63;;;3.13;;
27019;SDS011;76819;49.098;11.826;2024-03-23T13:16:40;10.95;;;3.30;;
27019;SDS011;76819;49.098;11.826;2024-03-23T13:21:42;7.55;;;3.60;;
27019;SDS011;76819;49.098;11.826;2024-03-23T13:26:44;7.68;;;3.53;;
27019;SDS011;76819;49.098;11.826;2024-03-23T13:31:47;9.38;;;3.47;;
27019;SDS011;76819;49.098;11.826;2024-03-23T13:36:49;8.07;;;3.65;;
27019;SDS011;76819;49.098;11.826;2024-03-23T13:41:51;8.18;;;2.83;;
27019;SDS011;76819;49.098;11.826;2024-03-23T13:46:54;9.93;;;3.28;;
27019;SDS011;76819;49.098;11.826;2024-03-23T13:51:56;9.85;;;3.35;;
27019;SDS011;76819;49.098;11.826;2024-03-23T13:56:58;7.15;;;3.20;;
27019;SDS011;76819;49.098;11.826;2024-03-23T14:02:01;7.03;;;3.67;;
27019;SDS011;76819;49.098;11.826;2024-03-23T14:07:03;10.02;;;4.20;;
27019;SDS011;76819;49.098;11.826;2024-03-23T14:12:05;9.27;;;3.80;;
27019;SDS011;76819;49.098;11.826;2024-03-23T14:17:10;11.43;;;3.25;;
27019;SDS011;76819;49.098;11.826;2024-03-23T14:22:14;6.80;;;3.20;;
27019;SDS011;76819;49.098;11.826;2024-03-23T14:27:18;10.55;;;3.78;;
27019;SDS011;76819;49.098;11.826;2024-03-23T14:32:21;7.63;;;3.47;;
27019;SDS011;76819;49.098;11.826;2024-03-23T14:37:23;7.78;;;3.17;;
27019;SDS011;76819;49.098;11.826;2024-03-23T14:42:24;9.82;;;4.13;;
27019;SDS011;76819;49.098;11.826;2024-03-23T14:47:28;8.13;;;3.88;;
27019;SDS011;76819;49.098;11.826;2024-03-23T14:52:30;11.85;;;4.45;;
27019;SDS011;76819;49.098;11.826;2024-03-23T14:57:31;14.77;;;6.45;;
27019;SDS011;76819;49.098;11.826;2024-03-23T15:02:35;9.18;;;3.35;;
27019;SDS011;76819;49.098;11.826;2024-03-23T15:07:36;11.73;;;3.35;;
27019;SDS011;76819;49.098;11.826;2024-03-23T15:12:38;9.57;;;4.00;;
27019;SDS011;76819;49.098;11.826;2024-03-23T15:17:41;9.73;;;4.18;;
27019;SDS011;76819;49.098;11.826;2024-03-23T15:22:44;7.00;;;2.88;;
27019;SDS011;76819;49.098;11.826;2024-03-23T15:27:46;9.90;;;3.10;;
27019;SDS011;76819;49.098;11.826;2024-03-23T15:32:49;10.15;;;3.47;;
27019;SDS011;76819;49.098;11.826;2024-03-23T15:37:51;8.25;;;3.10;;
27019;SDS011;76819;49.098;11.826;2024-03-23T15:42:53;15.70;;;4.25;;
27019;SDS011;76819;49.098;11.826;2024-03-23T15:47:56;11.25;;;3.47;;
27019;SDS011;76819;49.098;11.826;2024-03-23T15:52:57;8.15;;;3.25;;
27019;SDS011;76819;49.098;11.826;2024-03-23T15:57:59;13.25;;;5.95;;
27019;SDS011;76819;49.098;11.826;2024-03-23T16:03:02;30.00;;;12.02;;
27019;SDS011;76819;49.098;11.826;2024-03-23T16:08:04;12.05;;;4.72;;
27019;SDS011;76819;49.098;11.826;2024-03-23T16:13:08;16.90;;;4.75;;
27019;SDS011;76819;49.098;11.826;2024-03-23T16:18:11;8.68;;;3.42;;
27019;SDS011;76819;49.098;11.826;2024-03-23T16:23:13;12.38;;;4.60;;
27019;SDS011;76819;49.098;11.826;2024-03-23T16:28:15;9.75;;;4.07;;
27019;SDS011;76819;49.098;11.826;2024-03-23T16:33:18;9.13;;;4.88;;
27019;SDS011;76819;49.098;11.826;2024-03-23T16:38:19;9.05;;;4.40;;
27019;SDS011;76819;49.098;11.826;2024-03-23T16:43:21;9.57;;;4.50;;
27019;SDS011;76819;49.098;11.826;2024-03-23T16:48:25;10.45;;;4.20;;
27019;SDS011;76819;49.098;11.826;2024-03-23T16:53:28;9.20;;;4.40;;
27019;SDS011;76819;49.098;11.826;2024-03-23T16:58:31;14.75;;;6.07;;
27019;SDS011;76819;49.098;11.826;2024-03-23T17:03:34;15.60;;;6.85;;
27019;SDS011;76819;49.098;11.826;2024-03-23T17:08:36;18.40;;;8.05;;
27019;SDS011;76819;49.098;11.826;2024-03-23T17:13:38;9.63;;;5.15;;
27019;SDS011;76819;49.098;11.826;2024-03-23T17:18:41;13.25;;;7.90;;
27019;SDS011;76819;49.098;11.826;2024-03-23T17:23:43;11.15;;;6.03;;
27019;SDS011;76819;49.098;11.826;2024-03-23T17:28:44;43.35;;;15.88;;
27019;SDS011;76819;49.098;11.826;2024-03-23T17:33:50;15.93;;;8.30;;
27019;SDS011;76819;49.098;11.826;2024-03-23T17:38:53;9.07;;;4.35;;
27019;SDS011;76819;49.098;11.826;2024-03-23T17:43:55;13.43;;;5.95;;
27019;SDS011;76819;49.098;11.826;2024-03-23T17:48:58;17.30;;;5.97;;
27019;SDS011;76819;49.098;11.826;2024-03-23T17:54:00;14.90;;;5.78;;
27019;SDS011;76819;49.098;11.826;2024-03-23T17:59:02;6.50;;;3.50;;
27019;SDS011;76819;49.098;11.826;2024-03-23T18:04:05;10.70;;;4.15;;
27019;SDS011;76819;49.098;11.826;2024-03-23T18:09:06;9.90;;;4.80;;
27019;SDS011;76819;49.098;11.826;2024-03-23T18:14:10;8.25;;;4.80;;
27019;SDS011;76819;49.098;11.826;2024-03-23T18:19:13;6.13;;;3.60;;
27019;SDS011;76819;49.098;11.826;2024-03-23T18:24:15;8.25;;;4.15;;
27019;SDS011;76819;49.098;11.826;2024-03-23T18:29:16;14.32;;;6.40;;
27019;SDS011;76819;49.098;11.826;2024-03-23T18:34:20;13.90;;;6.45;;
27019;SDS011;76819;49.098;11.826;2024-03-23T18:39:22;23.30;;;7.75;;
27019;SDS011;76819;49.098;11.826;2024-03-23T18:44:23;14.50;;;5.00;;
27019;SDS011;76819;49.098;11.826;2024-03-23T18:49:27;16.70;;;6.45;;
27019;SDS011;76819;49.098;11.826;2024-03-23T18:54:28;11.30;;;4.40;;
27019;SDS011;76819;49.098;11.826;2024-03-23T18:59:30;16.65;;;7.72;;
27019;SDS011;76819;49.098;11.826;2024-03-23T19:04:33;13.57;;;5.90;;
27019;SDS011;76819;49.098;11.826;2024-03-23T19:09:35;9.27;;;4.90;;
27019;SDS011;76819;49.098;11.826;2024-03-23T19:14:36;11.77;;;4.45;;
27019;SDS011;76819;49.098;11.826;2024-03-23T19:19:41;12.20;;;5.07;;
27019;SDS011;76819;49.098;11.826;2024-03-23T19:24:43;12.77;;;4.57;;
27019;SDS011;76819;49.098;11.826;2024-03-23T19:29:44;13.18;;;5.15;;
27019;SDS011;76819;49.098;11.826;2024-03-23T19:34:48;13.25;;;5.25;;
27019;SDS011;76819;49.098;11.826;2024-03-23T19:39:49;13.30;;;6.30;;
27019;SDS011;76819;49.098;11.826;2024-03-23T19:44:51;24.83;;;10.10;;
27019;SDS011;76819;49.098;11.826;2024-03-23T19:49:54;9.93;;;5.65;;
27019;SDS011;76819;49.098;11.826;2024-03-23T19:54:56;20.98;;;8.02;;
27019;SDS011;76819;49.098;11.826;2024-03-23T19:59:58;13.57;;;4.53;;
27019;SDS011;76819;49.098;11.826;2024-03-23T20:05:01;6.65;;;3.28;;
27019;SDS011;76819;49.098;11.826;2024-03-23T20:10:03;7.60;;;4.40;;
27019;SDS011;76819;49.098;11.826;2024-03-23T20:15:05;9.50;;;4.22;;
27019;SDS011;76819;49.098;11.826;2024-03-23T20:20:10;11.77;;;4.68;;
27019;SDS011;76819;49.098;11.826;2024-03-23T20:25:12;7.82;;;3.95;;
27019;SDS011;76819;49.098;11.826;2024-03-23T20:30:13;10.57;;;4.88;;
27019;SDS011;76819;49.098;11.826;2024-03-23T20:35:16;5.32;;;3.70;;
27019;SDS011;76819;49.098;11.826;2024-03-23T20:40:18;13.70;;;4.40;;
27019;SDS011;76819;49.098;11.826;2024-03-23T20:45:20;14.43;;;6.22;;
27019;SDS011;76819;49.098;11.826;2024-03-23T20:50:23;12.73;;;6.50;;
27019;SDS011;76819;49.098;11.826;2024-03-23T20:55:25;10.75;;;4.32;;
27019;SDS011;76819;49.098;11.826;2024-03-23T21:00:26;6.80;;;3.22;;
27019;SDS011;76819;49.098;11.826;2024-03-23T21:05:29;8.35;;;4.35;;
27019;SDS011;76819;49.098;11.826;2024-03-23T21:10:31;10.07;;;4.85;;
27019;SDS011;76819;49.098;11.826;2024-03-23T21:15:33;8.57;;;4.63;;
27019;SDS011;76819;49.098;11.826;2024-03-23T21:20:36;5.57;;;3.97;;
27019;SDS011;76819;49.098;11.826;2024-03-23T21:25:38;5.60;;;3.60;;
27019;SDS011;76819;49.098;11.826;2024-03-23T21:30:40;3.33;;;2.67;;
27019;SDS011;76819;49.098;11.826;2024-03-23T21:35:44;3.53;;;3.00;;
27019;SDS011;76819;49.098;11.826;2024-03-23T21:40:50;6.15;;;4.40;;
27019;SDS011;76819;49.098;11.826;2024-03-23T21:45:55;7.40;;;3.80;;
27019;SDS011;76819;49.098;11.826;2024-03-23T21:51:00;4.70;;;3.20;;
27019;SDS011;76819;49.098;11.826;2024-03-23T21:56:02;4.32;;;2.90;;
27019;SDS011;76819;49.098;11.826;2024-03-23T22:01:04;5.03;;;2.58;;
27019;SDS011;76819;49.098;11.826;2024-03-23T22:06:08;7.72;;;3.00;;
27019;SDS011;76819;49.098;11.826;2024-03-23T22:11:10;7.57;;;3.15;;
27019;SDS011;76819;49.098;11.826;2024-03-23T22:16:11;4.50;;;2.90;;
27019;SDS011;76819;49.098;11.826;2024-03-23T22:21:14;2.83;;;2.55;;
27019;SDS011;76819;49.098;11.826;2024-03-23T22:26:16;6.80;;;3.22;;
27019;SDS011;76819;49.098;11.826;2024-03-23T22:31:18;4.50;;;2.80;;
27019;SDS011;76819;49.098;11.826;2024-03-23T22:36:21;3.97;;;2.95;;
27019;SDS011;76819;49.098;11.826;2024-03-23T22:41:22;4.13;;;2.55;;
27019;SDS011;76819;49.098;11.826;2024-03-23T22:46:24;7.53;;;3.90;;
27019;SDS011;76819;49.098;11.826;2024-03-23T22:51:27;8.05;;;3.40;;
27019;SDS011;76819;49.098;11.826;2024-03-23T22:56:29;5.45;;;3.65;;
27019;SDS011;76819;49.098;11.826;2024-03-23T23:01:31;3.67;;;2.60;;
27019;SDS011;76819;49.098;11.826;2024-03-23T23:06:34;7.00;;;2.80;;
27019;SDS011;76819;49.098;11.826;2024-03-23T23:11:37;4.85;;;3.38;;
27019;SDS011;76819;49.098;11.826;2024-03-23T23:16:39;4.75;;;3.30;;
27019;SDS011;76819;49.098;11.826;2024-03-23T23:21:42;7.80;;;3.72;;
27019;SDS011;76819;49.098;11.826;2024-03-23T23:26:44;7.97;;;2.90;;
27019;SDS011;76819;49.098;11.826;2024-03-23T23:31:45;7.55;;;3.20;;
27019;SDS011;76819;49.098;11.826;2024-03-23T23:36:50;7.82;;;3.55;;
27019;SDS011;76819;49.098;11.826;2024-03-23T23:41:52;6.55;;;3.28;;
27019;SDS011;76819;49.098;11.826;2024-03-23T23:46:54;5.72;;;3.20;;
27019;SDS011;76819;49.098;11.826;2024-03-23T23:51:57;7.22;;;3.17;;
27019;SDS011;76819;49.098;11.826;2024-03-23T23:56:58;6.65;;;3.10;;
